sensor_id;sensor_type;location;lat;lon;timestamp;pressure;altitude;pressure_sealevel;temperature;humidity
54850;BME280;47660;51.334;12.396;2024-01-30T00:00:16;101596.91;;;15.49;34.62
54850;BME280;47660;51.334;12.396;2024-01-30T00:02:42;101598.81;;;14.60;35.60
54850;BME280;47660;51.334;12.396;2024-01-30T00:05:08;101603.88;;;14.64;35.89
54850;BME280;47660;51.334;12.396;2024-01-30T00:07:33;101597.00;;;14.30;36.34
54850;BME280;47660;51.334;12.396;2024-01-30T00:09:58;101603.50;;;13.47;37.53
54850;BME280;47660;51.334;12.396;2024-01-30T00:12:24;101596.69;;;14.20;36.49
54850;BME280;47660;51.334;12.396;2024-01-30T00:14:49;101597.59;;;14.35;36.25
54850;BME280;47660;51.334;12.396;2024-01-30T00:17:14;101595.38;;;14.27;36.07
54850;BME280;47660;51.334;12.396;2024-01-30T00:19:40;101606.44;;;14.21;36.17
54850;BME280;47660;51.334;12.396;2024-01-30T00:22:05;101596.97;;;14.60;35.72
54850;BME280;47660;51.334;12.396;2024-01-30T00:24:30;101600.06;;;14.68;35.42
54850;BME280;47660;51.334;12.396;2024-01-30T00:26:55;101592.66;;;14.43;35.51
54850;BME280;47660;51.334;12.396;2024-01-30T00:29:21;101594.00;;;13.89;36.49
54850;BME280;47660;51.334;12.396;2024-01-30T00:31:47;101594.22;;;14.01;36.50
54850;BME280;47660;51.334;12.396;2024-01-30T00:34:13;101591.88;;;14.10;36.23
54850;BME280;47660;51.334;12.396;2024-01-30T00:36:38;101591.13;;;13.92;36.44
54850;BME280;47660;51.334;12.396;2024-01-30T00:39:03;101592.69;;;13.96;36.19
54850;BME280;47660;51.334;12.396;2024-01-30T00:41:32;101594.44;;;13.49;36.67
54850;BME280;47660;51.334;12.396;2024-01-30T00:43:57;101591.34;;;13.57;36.78
54850;BME280;47660;51.334;12.396;2024-01-30T00:46:22;101583.22;;;13.91;36.04
54850;BME280;47660;51.334;12.396;2024-01-30T00:48:47;101586.44;;;13.65;36.49
54850;BME280;47660;51.334;12.396;2024-01-30T00:51:13;101587.66;;;13.26;36.77
54850;BME280;47660;51.334;12.396;2024-01-30T00:53:38;101590.25;;;13.45;36.70
54850;BME280;47660;51.334;12.396;2024-01-30T00:56:04;101588.69;;;13.57;36.53
54850;BME280;47660;51.334;12.396;2024-01-30T00:58:29;101588.59;;;13.43;36.77
54850;BME280;47660;51.334;12.396;2024-01-30T01:00:54;101583.81;;;13.80;36.21
54850;BME280;47660;51.334;12.396;2024-01-30T01:03:20;101583.66;;;13.67;36.19
54850;BME280;47660;51.334;12.396;2024-01-30T01:05:45;101574.84;;;13.81;35.99
54850;BME280;47660;51.334;12.396;2024-01-30T01:08:10;101581.44;;;13.75;36.17
54850;BME280;47660;51.334;12.396;2024-01-30T01:10:36;101579.84;;;13.87;35.98
54850;BME280;47660;51.334;12.396;2024-01-30T01:13:01;101580.69;;;14.04;35.46
54850;BME280;47660;51.334;12.396;2024-01-30T01:15:26;101586.66;;;13.29;36.73
54850;BME280;47660;51.334;12.396;2024-01-30T01:17:51;101583.41;;;13.88;35.92
54850;BME280;47660;51.334;12.396;2024-01-30T01:20:17;101573.25;;;13.62;36.22
54850;BME280;47660;51.334;12.396;2024-01-30T01:22:42;101567.72;;;13.49;35.98
54850;BME280;47660;51.334;12.396;2024-01-30T01:25:08;101564.03;;;13.52;36.65
54850;BME280;47660;51.334;12.396;2024-01-30T01:27:35;101560.09;;;13.43;36.36
54850;BME280;47660;51.334;12.396;2024-01-30T01:30:07;101566.34;;;13.74;36.45
54850;BME280;47660;51.334;12.396;2024-01-30T01:32:34;101561.50;;;13.33;36.24
54850;BME280;47660;51.334;12.396;2024-01-30T01:34:59;101562.03;;;13.56;36.04
54850;BME280;47660;51.334;12.396;2024-01-30T01:37:24;101564.69;;;13.88;35.65
54850;BME280;47660;51.334;12.396;2024-01-30T01:39:51;101566.38;;;13.58;35.86
54850;BME280;47660;51.334;12.396;2024-01-30T01:42:17;101559.84;;;13.94;35.61
54850;BME280;47660;51.334;12.396;2024-01-30T01:44:42;101556.72;;;13.72;35.77
54850;BME280;47660;51.334;12.396;2024-01-30T01:47:07;101556.19;;;13.65;36.09
54850;BME280;47660;51.334;12.396;2024-01-30T01:49:32;101549.81;;;13.98;35.43
54850;BME280;47660;51.334;12.396;2024-01-30T01:51:58;101548.13;;;13.81;35.79
54850;BME280;47660;51.334;12.396;2024-01-30T01:54:25;101546.88;;;14.33;35.52
54850;BME280;47660;51.334;12.396;2024-01-30T01:56:52;101553.16;;;14.92;34.77
54850;BME280;47660;51.334;12.396;2024-01-30T01:59:18;101552.81;;;14.38;35.07
54850;BME280;47660;51.334;12.396;2024-01-30T02:01:45;101554.53;;;14.39;34.99
54850;BME280;47660;51.334;12.396;2024-01-30T02:04:14;101551.69;;;14.12;34.77
54850;BME280;47660;51.334;12.396;2024-01-30T02:06:39;101554.91;;;14.33;35.03
54850;BME280;47660;51.334;12.396;2024-01-30T02:09:04;101555.91;;;14.16;35.16
54850;BME280;47660;51.334;12.396;2024-01-30T02:11:30;101550.97;;;14.84;34.49
54850;BME280;47660;51.334;12.396;2024-01-30T02:13:55;101549.63;;;14.01;35.35
54850;BME280;47660;51.334;12.396;2024-01-30T02:16:20;101543.63;;;13.98;35.52
54850;BME280;47660;51.334;12.396;2024-01-30T02:18:46;101550.91;;;13.79;35.82
54850;BME280;47660;51.334;12.396;2024-01-30T02:21:15;101549.84;;;14.43;35.52
54850;BME280;47660;51.334;12.396;2024-01-30T02:23:40;101554.50;;;13.94;35.64
54850;BME280;47660;51.334;12.396;2024-01-30T02:26:06;101548.25;;;14.10;35.42
54850;BME280;47660;51.334;12.396;2024-01-30T02:28:31;101553.94;;;14.34;35.15
54850;BME280;47660;51.334;12.396;2024-01-30T02:30:56;101553.66;;;13.78;35.93
54850;BME280;47660;51.334;12.396;2024-01-30T02:33:22;101552.59;;;13.96;35.73
54850;BME280;47660;51.334;12.396;2024-01-30T02:35:47;101558.13;;;13.93;35.51
54850;BME280;47660;51.334;12.396;2024-01-30T02:38:13;101555.13;;;13.84;35.77
54850;BME280;47660;51.334;12.396;2024-01-30T02:40:38;101561.97;;;13.57;36.11
54850;BME280;47660;51.334;12.396;2024-01-30T02:43:04;101554.66;;;12.95;37.25
54850;BME280;47660;51.334;12.396;2024-01-30T02:45:29;101551.88;;;13.62;36.45
54850;BME280;47660;51.334;12.396;2024-01-30T02:47:54;101555.06;;;13.37;36.55
54850;BME280;47660;51.334;12.396;2024-01-30T02:50:20;101553.31;;;13.36;36.57
54850;BME280;47660;51.334;12.396;2024-01-30T02:52:45;101548.16;;;13.33;36.81
54850;BME280;47660;51.334;12.396;2024-01-30T02:55:11;101545.22;;;13.05;37.33
54850;BME280;47660;51.334;12.396;2024-01-30T02:57:37;101545.72;;;13.12;37.20
54850;BME280;47660;51.334;12.396;2024-01-30T03:00:02;101540.38;;;13.28;36.91
54850;BME280;47660;51.334;12.396;2024-01-30T03:02:29;101547.09;;;13.35;36.77
54850;BME280;47660;51.334;12.396;2024-01-30T03:04:54;101548.56;;;13.25;36.84
54850;BME280;47660;51.334;12.396;2024-01-30T03:07:19;101546.34;;;13.49;36.58
54850;BME280;47660;51.334;12.396;2024-01-30T03:09:45;101550.22;;;13.12;36.85
54850;BME280;47660;51.334;12.396;2024-01-30T03:12:10;101548.53;;;13.43;36.48
54850;BME280;47660;51.334;12.396;2024-01-30T03:14:36;101549.59;;;13.06;37.28
54850;BME280;47660;51.334;12.396;2024-01-30T03:17:01;101545.16;;;13.55;36.27
54850;BME280;47660;51.334;12.396;2024-01-30T03:19:26;101537.88;;;13.89;35.78
54850;BME280;47660;51.334;12.396;2024-01-30T03:21:52;101530.69;;;13.59;36.31
54850;BME280;47660;51.334;12.396;2024-01-30T03:24:17;101543.19;;;13.43;36.30
54850;BME280;47660;51.334;12.396;2024-01-30T03:26:43;101530.88;;;13.56;36.63
54850;BME280;47660;51.334;12.396;2024-01-30T03:29:09;101526.44;;;13.71;35.87
54850;BME280;47660;51.334;12.396;2024-01-30T03:31:34;101532.47;;;13.27;36.62
54850;BME280;47660;51.334;12.396;2024-01-30T03:33:59;101536.41;;;12.87;37.08
54850;BME280;47660;51.334;12.396;2024-01-30T03:36:24;101534.06;;;12.81;37.13
54850;BME280;47660;51.334;12.396;2024-01-30T03:38:50;101530.16;;;12.71;37.56
54850;BME280;47660;51.334;12.396;2024-01-30T03:41:15;101537.97;;;13.07;36.86
54850;BME280;47660;51.334;12.396;2024-01-30T03:43:40;101531.41;;;12.97;36.78
54850;BME280;47660;51.334;12.396;2024-01-30T03:46:06;101525.06;;;13.16;36.75
54850;BME280;47660;51.334;12.396;2024-01-30T03:48:32;101529.81;;;13.11;36.54
54850;BME280;47660;51.334;12.396;2024-01-30T03:50:57;101520.91;;;13.26;36.24
54850;BME280;47660;51.334;12.396;2024-01-30T03:53:22;101520.59;;;13.64;35.80
54850;BME280;47660;51.334;12.396;2024-01-30T03:55:47;101524.28;;;13.30;36.32
54850;BME280;47660;51.334;12.396;2024-01-30T03:58:13;101519.16;;;12.77;36.90
54850;BME280;47660;51.334;12.396;2024-01-30T04:00:38;101508.31;;;12.80;36.92
54850;BME280;47660;51.334;12.396;2024-01-30T04:03:04;101522.84;;;13.24;36.28
54850;BME280;47660;51.334;12.396;2024-01-30T04:05:29;101523.88;;;12.72;36.92
54850;BME280;47660;51.334;12.396;2024-01-30T04:07:54;101513.50;;;12.99;36.47
54850;BME280;47660;51.334;12.396;2024-01-30T04:10:20;101516.47;;;13.11;36.32
54850;BME280;47660;51.334;12.396;2024-01-30T04:12:45;101521.53;;;12.99;36.41
54850;BME280;47660;51.334;12.396;2024-01-30T04:15:10;101521.88;;;13.25;36.16
54850;BME280;47660;51.334;12.396;2024-01-30T04:17:36;101517.88;;;12.51;36.66
54850;BME280;47660;51.334;12.396;2024-01-30T04:20:01;101515.41;;;12.97;36.26
54850;BME280;47660;51.334;12.396;2024-01-30T04:22:26;101519.13;;;13.11;36.03
54850;BME280;47660;51.334;12.396;2024-01-30T04:24:52;101518.41;;;12.91;36.47
54850;BME280;47660;51.334;12.396;2024-01-30T04:27:17;101520.75;;;13.29;35.79
54850;BME280;47660;51.334;12.396;2024-01-30T04:29:42;101517.47;;;13.08;36.01
54850;BME280;47660;51.334;12.396;2024-01-30T04:32:08;101514.63;;;13.27;35.83
54850;BME280;47660;51.334;12.396;2024-01-30T04:34:34;101511.78;;;13.30;35.78
54850;BME280;47660;51.334;12.396;2024-01-30T04:36:59;101512.91;;;13.10;35.92
54850;BME280;47660;51.334;12.396;2024-01-30T04:39:25;101511.81;;;12.65;36.66
54850;BME280;47660;51.334;12.396;2024-01-30T04:41:50;101510.84;;;13.15;36.01
54850;BME280;47660;51.334;12.396;2024-01-30T04:44:15;101513.69;;;13.28;35.77
54850;BME280;47660;51.334;12.396;2024-01-30T04:46:41;101520.75;;;12.97;35.94
54850;BME280;47660;51.334;12.396;2024-01-30T04:49:06;101510.63;;;13.20;35.54
54850;BME280;47660;51.334;12.396;2024-01-30T04:51:33;101510.00;;;13.47;35.33
54850;BME280;47660;51.334;12.396;2024-01-30T04:53:58;101513.25;;;13.04;36.01
54850;BME280;47660;51.334;12.396;2024-01-30T04:56:24;101503.44;;;13.04;35.80
54850;BME280;47660;51.334;12.396;2024-01-30T04:58:49;101513.78;;;13.27;35.52
54850;BME280;47660;51.334;12.396;2024-01-30T05:01:17;101510.06;;;14.08;34.96
54850;BME280;47660;51.334;12.396;2024-01-30T05:03:43;101518.06;;;13.29;35.43
54850;BME280;47660;51.334;12.396;2024-01-30T05:06:08;101512.16;;;13.56;35.01
54850;BME280;47660;51.334;12.396;2024-01-30T05:08:34;101513.28;;;13.52;35.00
54850;BME280;47660;51.334;12.396;2024-01-30T05:11:02;101504.44;;;13.82;34.78
54850;BME280;47660;51.334;12.396;2024-01-30T05:13:29;101504.06;;;13.10;35.39
54850;BME280;47660;51.334;12.396;2024-01-30T05:15:55;101504.66;;;13.15;35.31
54850;BME280;47660;51.334;12.396;2024-01-30T05:18:20;101509.13;;;13.30;35.26
54850;BME280;47660;51.334;12.396;2024-01-30T05:20:45;101508.69;;;13.06;35.61
54850;BME280;47660;51.334;12.396;2024-01-30T05:23:10;101511.97;;;13.11;35.65
54850;BME280;47660;51.334;12.396;2024-01-30T05:25:36;101511.78;;;12.82;35.97
54850;BME280;47660;51.334;12.396;2024-01-30T05:28:01;101513.53;;;12.66;36.20
54850;BME280;47660;51.334;12.396;2024-01-30T05:30:26;101520.69;;;12.65;36.35
54850;BME280;47660;51.334;12.396;2024-01-30T05:32:51;101528.41;;;12.36;36.03
54850;BME280;47660;51.334;12.396;2024-01-30T05:35:17;101524.84;;;12.53;35.94
54850;BME280;47660;51.334;12.396;2024-01-30T05:37:43;101523.00;;;13.21;35.23
54850;BME280;47660;51.334;12.396;2024-01-30T05:40:08;101522.22;;;13.19;35.25
54850;BME280;47660;51.334;12.396;2024-01-30T05:42:33;101527.84;;;13.62;34.35
54850;BME280;47660;51.334;12.396;2024-01-30T05:44:59;101512.91;;;12.94;35.35
54850;BME280;47660;51.334;12.396;2024-01-30T05:47:24;101516.53;;;13.09;35.01
54850;BME280;47660;51.334;12.396;2024-01-30T05:49:49;101516.88;;;13.03;35.19
54850;BME280;47660;51.334;12.396;2024-01-30T05:52:15;101511.09;;;12.45;36.09
54850;BME280;47660;51.334;12.396;2024-01-30T05:54:41;101514.16;;;12.71;35.73
54850;BME280;47660;51.334;12.396;2024-01-30T05:57:06;101512.75;;;13.29;35.04
54850;BME280;47660;51.334;12.396;2024-01-30T05:59:32;101515.06;;;13.03;35.28
54850;BME280;47660;51.334;12.396;2024-01-30T06:01:57;101517.84;;;13.18;34.94
54850;BME280;47660;51.334;12.396;2024-01-30T06:04:23;101518.56;;;13.84;34.09
54850;BME280;47660;51.334;12.396;2024-01-30T06:06:48;101522.03;;;13.06;34.72
54850;BME280;47660;51.334;12.396;2024-01-30T06:09:13;101514.56;;;12.97;34.82
54850;BME280;47660;51.334;12.396;2024-01-30T06:11:39;101519.78;;;12.82;35.01
54850;BME280;47660;51.334;12.396;2024-01-30T06:14:04;101527.22;;;13.25;34.60
54850;BME280;47660;51.334;12.396;2024-01-30T06:16:30;101517.22;;;13.61;34.16
54850;BME280;47660;51.334;12.396;2024-01-30T06:18:56;101523.88;;;13.54;34.01
54850;BME280;47660;51.334;12.396;2024-01-30T06:21:21;101523.06;;;13.84;33.87
54850;BME280;47660;51.334;12.396;2024-01-30T06:23:47;101519.41;;;13.22;34.43
54850;BME280;47660;51.334;12.396;2024-01-30T06:26:12;101512.84;;;13.12;34.44
54850;BME280;47660;51.334;12.396;2024-01-30T06:28:37;101505.69;;;12.96;35.05
54850;BME280;47660;51.334;12.396;2024-01-30T06:31:03;101504.22;;;13.06;34.94
54850;BME280;47660;51.334;12.396;2024-01-30T06:33:28;101511.59;;;12.85;34.90
54850;BME280;47660;51.334;12.396;2024-01-30T06:35:54;101508.50;;;13.25;34.57
54850;BME280;47660;51.334;12.396;2024-01-30T06:38:19;101510.19;;;13.12;34.74
54850;BME280;47660;51.334;12.396;2024-01-30T06:40:44;101504.84;;;13.12;34.72
54850;BME280;47660;51.334;12.396;2024-01-30T06:43:10;101511.06;;;13.44;34.18
54850;BME280;47660;51.334;12.396;2024-01-30T06:45:35;101516.03;;;13.50;33.75
54850;BME280;47660;51.334;12.396;2024-01-30T06:48:00;101506.84;;;14.17;33.05
54850;BME280;47660;51.334;12.396;2024-01-30T06:50:26;101517.13;;;14.23;32.79
54850;BME280;47660;51.334;12.396;2024-01-30T06:52:51;101514.28;;;13.81;33.26
54850;BME280;47660;51.334;12.396;2024-01-30T06:55:18;101507.22;;;14.25;33.14
54850;BME280;47660;51.334;12.396;2024-01-30T06:57:43;101507.34;;;14.38;32.46
54850;BME280;47660;51.334;12.396;2024-01-30T07:00:09;101507.88;;;13.84;33.54
54850;BME280;47660;51.334;12.396;2024-01-30T07:02:34;101513.19;;;13.05;34.54
54850;BME280;47660;51.334;12.396;2024-01-30T07:04:59;101512.31;;;13.37;34.05
54850;BME280;47660;51.334;12.396;2024-01-30T07:07:24;101514.22;;;13.51;33.87
54850;BME280;47660;51.334;12.396;2024-01-30T07:09:50;101507.13;;;12.86;34.94
54850;BME280;47660;51.334;12.396;2024-01-30T07:12:20;101510.19;;;13.12;34.48
54850;BME280;47660;51.334;12.396;2024-01-30T07:14:46;101516.47;;;13.43;34.13
54850;BME280;47660;51.334;12.396;2024-01-30T07:17:11;101510.84;;;12.99;34.90
54850;BME280;47660;51.334;12.396;2024-01-30T07:19:36;101504.22;;;13.06;34.62
54850;BME280;47660;51.334;12.396;2024-01-30T07:22:02;101511.13;;;13.11;34.47
54850;BME280;47660;51.334;12.396;2024-01-30T07:24:27;101517.69;;;13.21;34.51
54850;BME280;47660;51.334;12.396;2024-01-30T07:26:52;101512.09;;;13.42;33.86
54850;BME280;47660;51.334;12.396;2024-01-30T07:29:18;101508.44;;;13.27;34.11
54850;BME280;47660;51.334;12.396;2024-01-30T07:31:43;101511.91;;;13.29;33.86
54850;BME280;47660;51.334;12.396;2024-01-30T07:34:08;101511.63;;;13.65;33.83
54850;BME280;47660;51.334;12.396;2024-01-30T07:36:34;101502.81;;;13.79;33.62
54850;BME280;47660;51.334;12.396;2024-01-30T07:38:59;101507.50;;;14.21;32.75
54850;BME280;47660;51.334;12.396;2024-01-30T07:41:24;101504.41;;;13.51;33.74
54850;BME280;47660;51.334;12.396;2024-01-30T07:43:50;101511.47;;;13.20;34.11
54850;BME280;47660;51.334;12.396;2024-01-30T07:46:15;101504.84;;;13.28;34.07
54850;BME280;47660;51.334;12.396;2024-01-30T07:48:41;101501.97;;;13.63;33.70
54850;BME280;47660;51.334;12.396;2024-01-30T07:51:06;101501.63;;;13.69;33.52
54850;BME280;47660;51.334;12.396;2024-01-30T07:53:31;101505.31;;;13.97;32.94
54850;BME280;47660;51.334;12.396;2024-01-30T07:55:57;101502.72;;;13.81;33.38
54850;BME280;47660;51.334;12.396;2024-01-30T07:58:22;101510.38;;;14.32;32.67
54850;BME280;47660;51.334;12.396;2024-01-30T08:00:49;101501.56;;;13.71;33.61
54850;BME280;47660;51.334;12.396;2024-01-30T08:03:14;101498.22;;;14.26;32.63
54850;BME280;47660;51.334;12.396;2024-01-30T08:05:41;101493.88;;;14.54;32.73
54850;BME280;47660;51.334;12.396;2024-01-30T08:08:07;101502.34;;;13.87;33.38
54850;BME280;47660;51.334;12.396;2024-01-30T08:10:32;101507.03;;;14.14;33.06
54850;BME280;47660;51.334;12.396;2024-01-30T08:12:57;101503.84;;;14.07;33.01
54850;BME280;47660;51.334;12.396;2024-01-30T08:15:22;101498.28;;;14.55;32.58
54850;BME280;47660;51.334;12.396;2024-01-30T08:17:48;101509.81;;;13.96;33.39
54850;BME280;47660;51.334;12.396;2024-01-30T08:20:13;101499.81;;;14.74;32.16
54850;BME280;47660;51.334;12.396;2024-01-30T08:22:39;101492.63;;;14.60;32.45
54850;BME280;47660;51.334;12.396;2024-01-30T08:25:05;101499.66;;;14.18;32.97
54850;BME280;47660;51.334;12.396;2024-01-30T08:27:31;101493.03;;;14.39;32.61
54850;BME280;47660;51.334;12.396;2024-01-30T08:29:56;101498.16;;;15.00;31.90
54850;BME280;47660;51.334;12.396;2024-01-30T08:32:21;101489.41;;;15.26;31.46
54850;BME280;47660;51.334;12.396;2024-01-30T08:34:46;101493.56;;;15.03;31.74
54850;BME280;47660;51.334;12.396;2024-01-30T08:37:12;101489.78;;;16.02;30.86
54850;BME280;47660;51.334;12.396;2024-01-30T08:39:38;101487.09;;;16.15;30.44
54850;BME280;47660;51.334;12.396;2024-01-30T08:42:04;101497.81;;;15.89;31.12
54850;BME280;47660;51.334;12.396;2024-01-30T08:44:29;101499.84;;;15.30;31.68
54850;BME280;47660;51.334;12.396;2024-01-30T08:46:54;101493.25;;;15.49;31.37
54850;BME280;47660;51.334;12.396;2024-01-30T08:49:20;101497.00;;;15.47;31.67
54850;BME280;47660;51.334;12.396;2024-01-30T08:51:45;101495.66;;;15.54;31.57
54850;BME280;47660;51.334;12.396;2024-01-30T08:54:11;101498.22;;;15.55;31.55
54850;BME280;47660;51.334;12.396;2024-01-30T08:56:36;101499.66;;;15.61;31.53
54850;BME280;47660;51.334;12.396;2024-01-30T08:59:01;101496.97;;;15.88;31.33
54850;BME280;47660;51.334;12.396;2024-01-30T09:01:26;101494.16;;;15.63;31.63
54850;BME280;47660;51.334;12.396;2024-01-30T09:03:52;101484.47;;;15.47;31.87
54850;BME280;47660;51.334;12.396;2024-01-30T09:06:18;101489.22;;;15.56;32.89
54850;BME280;47660;51.334;12.396;2024-01-30T09:08:43;101489.56;;;15.92;32.97
54850;BME280;47660;51.334;12.396;2024-01-30T09:11:09;101478.53;;;16.48;31.91
54850;BME280;47660;51.334;12.396;2024-01-30T09:13:35;101485.53;;;15.85;31.46
54850;BME280;47660;51.334;12.396;2024-01-30T09:16:01;101484.84;;;15.68;32.08
54850;BME280;47660;51.334;12.396;2024-01-30T09:18:26;101477.03;;;16.06;32.47
54850;BME280;47660;51.334;12.396;2024-01-30T09:20:51;101481.56;;;15.78;32.36
54850;BME280;47660;51.334;12.396;2024-01-30T09:23:17;101487.22;;;16.26;32.31
54850;BME280;47660;51.334;12.396;2024-01-30T09:25:44;101487.91;;;16.30;32.54
54850;BME280;47660;51.334;12.396;2024-01-30T09:28:09;101482.06;;;16.23;31.61
54850;BME280;47660;51.334;12.396;2024-01-30T09:30:34;101474.50;;;17.06;30.65
54850;BME280;47660;51.334;12.396;2024-01-30T09:32:59;101484.16;;;17.08;30.93
54850;BME280;47660;51.334;12.396;2024-01-30T09:35:25;101482.38;;;17.33;30.43
54850;BME280;47660;51.334;12.396;2024-01-30T09:37:50;101482.00;;;17.62;30.15
54850;BME280;47660;51.334;12.396;2024-01-30T09:40:17;101479.31;;;17.14;30.81
54850;BME280;47660;51.334;12.396;2024-01-30T09:42:44;101482.81;;;17.51;30.38
54850;BME280;47660;51.334;12.396;2024-01-30T09:45:13;101484.75;;;17.49;30.86
54850;BME280;47660;51.334;12.396;2024-01-30T09:47:43;101481.97;;;18.22;29.93
54850;BME280;47660;51.334;12.396;2024-01-30T09:50:10;101482.56;;;17.90;30.27
54850;BME280;47660;51.334;12.396;2024-01-30T09:52:36;101475.66;;;17.63;30.16
54850;BME280;47660;51.334;12.396;2024-01-30T09:55:02;101485.75;;;17.35;30.81
54850;BME280;47660;51.334;12.396;2024-01-30T09:57:27;101485.34;;;18.02;29.87
54850;BME280;47660;51.334;12.396;2024-01-30T09:59:53;101479.91;;;17.66;30.54
54850;BME280;47660;51.334;12.396;2024-01-30T10:02:21;101470.78;;;17.69;30.67
54850;BME280;47660;51.334;12.396;2024-01-30T10:04:48;101480.75;;;18.26;30.32
54850;BME280;47660;51.334;12.396;2024-01-30T10:07:14;101480.22;;;17.26;31.47
54850;BME280;47660;51.334;12.396;2024-01-30T10:09:40;101481.31;;;17.47;30.94
54850;BME280;47660;51.334;12.396;2024-01-30T10:12:05;101477.19;;;18.26;30.49
54850;BME280;47660;51.334;12.396;2024-01-30T10:14:31;101473.09;;;17.73;30.63
54850;BME280;47660;51.334;12.396;2024-01-30T10:16:57;101470.13;;;18.36;30.63
54850;BME280;47660;51.334;12.396;2024-01-30T10:19:22;101476.97;;;18.52;29.85
54850;BME280;47660;51.334;12.396;2024-01-30T10:21:47;101465.97;;;18.44;30.12
54850;BME280;47660;51.334;12.396;2024-01-30T10:24:13;101462.72;;;19.07;29.55
54850;BME280;47660;51.334;12.396;2024-01-30T10:26:39;101470.31;;;19.13;29.26
54850;BME280;47660;51.334;12.396;2024-01-30T10:29:04;101459.19;;;19.18;29.71
54850;BME280;47660;51.334;12.396;2024-01-30T10:31:30;101462.03;;;18.59;30.33
54850;BME280;47660;51.334;12.396;2024-01-30T10:33:56;101464.47;;;18.62;30.08
54850;BME280;47660;51.334;12.396;2024-01-30T10:36:28;101454.91;;;19.04;30.30
54850;BME280;47660;51.334;12.396;2024-01-30T10:38:55;101455.94;;;18.46;31.14
54850;BME280;47660;51.334;12.396;2024-01-30T10:41:26;101450.50;;;18.91;30.61
54850;BME280;47660;51.334;12.396;2024-01-30T10:44:08;101448.47;;;19.93;29.48
54850;BME280;47660;51.334;12.396;2024-01-30T10:46:35;101441.38;;;19.26;30.41
54850;BME280;47660;51.334;12.396;2024-01-30T10:49:02;101441.84;;;19.32;29.95
54850;BME280;47660;51.334;12.396;2024-01-30T10:51:30;101439.53;;;19.81;29.79
54850;BME280;47660;51.334;12.396;2024-01-30T10:53:57;101435.25;;;19.57;30.01
54850;BME280;47660;51.334;12.396;2024-01-30T10:56:23;101433.06;;;19.51;30.21
54850;BME280;47660;51.334;12.396;2024-01-30T10:58:50;101430.75;;;20.21;29.56
54850;BME280;47660;51.334;12.396;2024-01-30T11:01:20;101428.06;;;21.32;27.84
54850;BME280;47660;51.334;12.396;2024-01-30T11:03:49;101430.16;;;20.27;29.22
54850;BME280;47660;51.334;12.396;2024-01-30T11:06:15;101432.25;;;20.14;29.09
54850;BME280;47660;51.334;12.396;2024-01-30T11:08:43;101428.19;;;20.60;28.52
54850;BME280;47660;51.334;12.396;2024-01-30T11:11:10;101425.19;;;20.95;28.28
54850;BME280;47660;51.334;12.396;2024-01-30T11:13:35;101430.13;;;20.48;28.86
54850;BME280;47660;51.334;12.396;2024-01-30T11:16:04;101429.63;;;21.35;28.42
54850;BME280;47660;51.334;12.396;2024-01-30T11:18:31;101421.38;;;21.27;28.43
54850;BME280;47660;51.334;12.396;2024-01-30T11:20:58;101417.59;;;20.47;29.42
54850;BME280;47660;51.334;12.396;2024-01-30T11:23:25;101413.69;;;21.51;28.51
54850;BME280;47660;51.334;12.396;2024-01-30T11:25:52;101425.44;;;20.51;29.59
54850;BME280;47660;51.334;12.396;2024-01-30T11:28:17;101418.38;;;19.97;29.82
54850;BME280;47660;51.334;12.396;2024-01-30T11:30:43;101415.69;;;20.28;29.85
54850;BME280;47660;51.334;12.396;2024-01-30T11:33:13;101409.84;;;21.54;28.48
54850;BME280;47660;51.334;12.396;2024-01-30T11:35:42;101407.66;;;20.79;29.21
54850;BME280;47660;51.334;12.396;2024-01-30T11:38:10;101408.38;;;20.81;29.61
54850;BME280;47660;51.334;12.396;2024-01-30T11:40:37;101415.41;;;19.79;30.84
54850;BME280;47660;51.334;12.396;2024-01-30T11:43:04;101415.91;;;19.73;31.36
54850;BME280;47660;51.334;12.396;2024-01-30T11:45:30;101418.03;;;19.48;31.49
54850;BME280;47660;51.334;12.396;2024-01-30T11:47:56;101415.91;;;20.15;30.66
54850;BME280;47660;51.334;12.396;2024-01-30T11:50:22;101404.22;;;20.05;31.01
54850;BME280;47660;51.334;12.396;2024-01-30T11:52:48;101400.56;;;21.76;28.79
54850;BME280;47660;51.334;12.396;2024-01-30T11:55:14;101395.09;;;22.06;28.77
54850;BME280;47660;51.334;12.396;2024-01-30T11:57:40;101386.78;;;23.55;27.34
54850;BME280;47660;51.334;12.396;2024-01-30T12:00:06;101384.13;;;25.19;25.34
54850;BME280;47660;51.334;12.396;2024-01-30T12:02:36;101380.34;;;26.51;23.77
54850;BME280;47660;51.334;12.396;2024-01-30T12:05:05;101377.75;;;26.09;24.22
54850;BME280;47660;51.334;12.396;2024-01-30T12:07:30;101373.78;;;25.56;24.39
54850;BME280;47660;51.334;12.396;2024-01-30T12:09:56;101364.91;;;26.98;23.35
54850;BME280;47660;51.334;12.396;2024-01-30T12:12:25;101367.75;;;26.81;23.75
54850;BME280;47660;51.334;12.396;2024-01-30T12:14:51;101368.16;;;27.40;23.30
54850;BME280;47660;51.334;12.396;2024-01-30T12:17:30;101370.34;;;26.43;24.30
54850;BME280;47660;51.334;12.396;2024-01-30T12:20:13;101368.56;;;26.02;24.83
54850;BME280;47660;51.334;12.396;2024-01-30T12:22:42;101381.25;;;25.20;25.96
54850;BME280;47660;51.334;12.396;2024-01-30T12:25:12;101380.88;;;25.40;26.12
54850;BME280;47660;51.334;12.396;2024-01-30T12:27:39;101376.94;;;23.54;27.73
54850;BME280;47660;51.334;12.396;2024-01-30T12:30:09;101366.44;;;24.98;26.67
54850;BME280;47660;51.334;12.396;2024-01-30T12:32:40;101362.72;;;24.56;27.24